Time;durP1;ratioP1;P1;durP2;ratioP2;P2;SDS_P1;SDS_P2;PMS_P1;PMS_P2;Temp;Humidity;BMP_temperature;BMP_pressure;BME280_temperature;BME280_humidity;BME280_pressure;Samples;Min_cycle;Max_cycle;Signal;HPM_P1;HPM_P2
2021/03/16 00:01:43;;;;;;;92.67;49.07;;;-3.30;1.00;;;;;;4813554;28;20949;-83
2021/03/16 00:04:05;;;;;;;107.23;53.00;;;-3.30;1.00;;;;;;4802340;28;20717;-86
2021/03/16 00:06:47;;;;;;;113.37;61.37;;;-3.30;1.00;;;;;;4802882;28;20625;-84
2021/03/16 00:09:09;;;;;;;121.37;63.63;;;-3.30;1.00;;;;;;4917502;28;20627;-83
2021/03/16 00:11:32;;;;;;;119.17;61.30;;;-3.30;1.00;;;;;;4816843;28;21346;-84
2021/03/16 00:13:53;;;;;;;103.43;54.20;;;-3.20;1.00;;;;;;4798494;28;21238;-87
2021/03/16 00:16:15;;;;;;;110.57;59.17;;;-3.30;1.00;;;;;;4808968;28;20630;-85
2021/03/16 00:18:38;;;;;;;130.73;66.83;;;-3.30;1.00;;;;;;4798429;28;20614;-86
2021/03/16 00:21:00;;;;;;;102.50;55.13;;;-3.30;1.00;;;;;;4817355;28;21217;-88
2021/03/16 00:23:23;;;;;;;103.90;55.30;;;-3.30;1.00;;;;;;4817535;28;20662;-86
2021/03/16 00:25:45;;;;;;;111.50;54.80;;;-3.30;1.00;;;;;;4809586;28;20614;-87
2021/03/16 00:28:08;;;;;;;105.70;54.97;;;-3.40;1.00;;;;;;4798520;28;20610;-85
2021/03/16 00:30:30;;;;;;;109.13;55.70;;;-3.30;1.00;;;;;;4886048;28;20994;-85
2021/03/16 00:32:52;;;;;;;110.63;58.30;;;-3.40;1.00;;;;;;4800265;28;21091;-86
2021/03/16 00:35:15;;;;;;;115.13;60.10;;;-3.40;1.00;;;;;;4816173;28;20621;-88
2021/03/16 00:37:37;;;;;;;116.73;60.93;;;-3.40;1.00;;;;;;4790908;28;20639;-86
2021/03/16 00:40:00;;;;;;;117.83;60.50;;;-3.40;1.00;;;;;;4810733;28;21083;-85
2021/03/16 00:42:22;;;;;;;128.27;66.50;;;-3.40;1.00;;;;;;4816520;28;21040;-85
2021/03/16 00:44:45;;;;;;;160.40;84.17;;;-3.30;1.00;;;;;;4817638;28;20621;-86
2021/03/16 00:47:07;;;;;;;159.97;85.87;;;-3.20;1.70;;;;;;4820852;28;20668;-86
2021/03/16 00:49:29;;;;;;;163.53;86.57;;;-3.10;11.40;;;;;;4788833;28;20618;-85
2021/03/16 00:51:52;;;;;;;133.47;73.83;;;-3.00;19.70;;;;;;4816335;28;20664;-86
2021/03/16 00:54:15;;;;;;;164.97;85.43;;;-2.90;25.70;;;;;;4801140;28;20650;-86
2021/03/16 00:56:39;;;;;;;148.17;77.27;;;-2.80;33.00;;;;;;4816848;28;20663;-88
2021/03/16 00:59:01;;;;;;;153.03;78.47;;;-2.70;40.70;;;;;;4785442;28;21089;-87
2021/03/16 01:01:23;;;;;;;144.63;74.60;;;-2.60;48.00;;;;;;4799465;28;21187;-87
2021/03/16 01:03:45;;;;;;;145.83;79.17;;;-2.50;53.70;;;;;;4817893;28;20601;-88
2021/03/16 01:06:07;;;;;;;156.33;87.10;;;-2.50;56.20;;;;;;4792180;28;20681;-87
2021/03/16 01:08:30;;;;;;;151.30;83.50;;;-2.40;56.70;;;;;;4799505;28;21013;-85
2021/03/16 01:10:53;;;;;;;145.67;78.20;;;-2.40;55.80;;;;;;4799657;28;20992;-87
2021/03/16 01:13:17;;;;;;;139.97;76.77;;;-2.30;54.10;;;;;;4799236;28;20696;-87
2021/03/16 01:15:39;;;;;;;140.60;77.53;;;-2.30;51.70;;;;;;4799195;28;20644;-87
2021/03/16 01:18:01;;;;;;;136.93;76.67;;;-2.30;48.30;;;;;;4815645;28;21275;-87
2021/03/16 01:20:25;;;;;;;139.13;76.00;;;-2.30;43.80;;;;;;4800529;28;21036;-87
2021/03/16 01:22:48;;;;;;;134.03;73.67;;;-2.30;34.50;;;;;;4813600;28;20691;-81
2021/03/16 01:25:11;;;;;;;130.03;72.83;;;-2.20;28.00;;;;;;4805918;28;20627;-82
2021/03/16 01:27:34;;;;;;;131.97;74.47;;;-2.20;23.60;;;;;;4918494;28;21007;-85
2021/03/16 01:29:57;;;;;;;137.37;76.90;;;-2.20;20.60;;;;;;4815343;28;20626;-88
2021/03/16 01:32:19;;;;;;;138.63;73.27;;;-2.10;18.70;;;;;;4801764;28;21068;-85
2021/03/16 01:34:41;;;;;;;142.93;76.33;;;-2.10;17.70;;;;;;4797943;28;20614;-87
2021/03/16 01:37:03;;;;;;;143.73;79.83;;;-2.00;16.00;;;;;;4797854;28;20627;-84
2021/03/16 01:39:25;;;;;;;143.03;79.17;;;-1.90;11.50;;;;;;4883737;28;21019;-84
2021/03/16 01:41:47;;;;;;;147.90;79.33;;;-1.90;6.60;;;;;;4807011;28;21015;-76
2021/03/16 01:44:10;;;;;;;140.67;79.23;;;-1.80;1.00;;;;;;4815142;28;20613;-87
2021/03/16 01:46:33;;;;;;;150.50;79.80;;;-1.90;1.00;;;;;;4805521;28;20690;-86
2021/03/16 01:48:55;;;;;;;151.93;80.33;;;-1.90;1.00;;;;;;4814986;28;20667;-87
2021/03/16 01:51:19;;;;;;;145.03;75.30;;;-1.90;1.00;;;;;;4807512;28;21045;-78
2021/03/16 01:53:43;;;;;;;157.13;80.30;;;-1.90;1.00;;;;;;4816791;28;20602;-84
2021/03/16 01:56:07;;;;;;;147.83;78.73;;;-2.00;1.00;;;;;;4786967;28;21074;-86
2021/03/16 01:58:48;;;;;;;153.23;81.37;;;-2.00;1.00;;;;;;4815477;28;20637;-78
2021/03/16 02:01:28;;;;;;;154.43;84.63;;;-2.10;1.00;;;;;;4815838;28;21227;-88
2021/03/16 02:04:10;;;;;;;164.40;84.63;;;-2.20;1.00;;;;;;4918453;28;20627;-87
2021/03/16 02:06:57;;;;;;;160.37;84.93;;;-2.30;1.00;;;;;;4798330;28;20672;-88
2021/03/16 02:09:42;;;;;;;159.00;85.97;;;-2.40;1.00;;;;;;4799348;28;20982;-88
2021/03/16 02:12:29;;;;;;;165.83;91.03;;;-2.50;1.00;;;;;;4808934;28;20726;-86
2021/03/16 02:15:14;;;;;;;167.13;88.33;;;-2.60;1.00;;;;;;4802505;28;20594;-87
2021/03/16 02:17:57;;;;;;;165.53;89.87;;;-2.60;1.00;;;;;;4798398;28;20617;-88
2021/03/16 02:21:02;;;;;;;173.77;92.03;;;-2.70;1.00;;;;;;4814230;28;20650;-86
2021/03/16 02:23:59;;;;;;;190.93;97.03;;;-2.80;1.00;;;;;;4904908;28;20643;-87
2021/03/16 02:26:48;;;;;;;170.77;91.37;;;-2.80;1.00;;;;;;4816033;28;20647;-87
2021/03/16 02:29:33;;;;;;;165.37;87.07;;;-2.90;1.00;;;;;;4801603;28;20664;-87
2021/03/16 02:32:18;;;;;;;168.37;88.13;;;-2.90;1.00;;;;;;4814650;28;20656;-86
2021/03/16 02:35:04;;;;;;;177.87;90.67;;;-3.00;1.00;;;;;;4817272;28;20615;-86
2021/03/16 02:37:45;;;;;;;165.70;88.37;;;-3.00;1.00;;;;;;4815097;28;20622;-88
2021/03/16 02:40:28;;;;;;;168.90;90.87;;;-3.10;1.00;;;;;;4814624;28;21207;-88
2021/03/16 02:43:09;;;;;;;174.07;90.73;;;-3.10;1.00;;;;;;4812845;28;20660;-86
2021/03/16 02:45:52;;;;;;;161.50;89.30;;;-3.20;1.00;;;;;;4811092;28;20672;-88
2021/03/16 02:48:32;;;;;;;169.43;93.93;;;-3.20;1.00;;;;;;4817835;28;20586;-86
2021/03/16 02:51:15;;;;;;;176.40;95.17;;;-3.20;1.00;;;;;;4812394;28;20639;-88
2021/03/16 02:53:56;;;;;;;170.33;93.60;;;-3.30;1.00;;;;;;4817178;28;20566;-89
2021/03/16 02:56:37;;;;;;;169.57;91.20;;;-3.20;1.00;;;;;;4813431;28;20589;-86
2021/03/16 02:59:19;;;;;;;168.40;89.80;;;-3.20;1.00;;;;;;4798666;28;20771;-76
2021/03/16 03:02:02;;;;;;;171.37;90.50;;;-3.20;1.00;;;;;;4829708;28;20674;-84
2021/03/16 03:04:46;;;;;;;177.53;93.90;;;-3.10;1.00;;;;;;4816876;28;21006;-88
2021/03/16 03:07:27;;;;;;;164.63;90.57;;;-3.00;12.80;;;;;;4811590;28;20643;-88
2021/03/16 03:10:09;;;;;;;145.63;82.27;;;-2.90;25.30;;;;;;4909854;28;21036;-87
2021/03/16 03:12:51;;;;;;;160.57;90.20;;;-2.90;35.80;;;;;;4819052;28;20710;-86
2021/03/16 03:15:32;;;;;;;172.73;96.27;;;-2.80;47.10;;;;;;4801428;28;20636;-84
2021/03/16 03:18:14;;;;;;;160.90;92.13;;;-2.70;58.60;;;;;;4802874;28;20632;-87
2021/03/16 03:20:55;;;;;;;170.33;91.33;;;-2.70;69.90;;;;;;4800764;28;20570;-88
2021/03/16 03:23:44;;;;;;;164.87;95.63;;;-2.60;76.70;;;;;;4800397;28;20984;-83
2021/03/16 03:26:31;;;;;;;188.27;102.63;;;-2.60;81.40;;;;;;4812269;28;20650;-88
2021/03/16 03:29:12;;;;;;;166.27;93.93;;;-2.60;85.40;;;;;;4814700;28;21001;-84
2021/03/16 03:31:55;;;;;;;156.03;91.60;;;-2.50;89.70;;;;;;4818985;28;21224;-83
2021/03/16 03:34:37;;;;;;;165.13;92.10;;;-2.50;91.40;;;;;;4812592;28;20634;-88
2021/03/16 03:37:22;;;;;;;164.50;95.30;;;-2.50;92.90;;;;;;4819311;28;20589;-76
2021/03/16 03:40:05;;;;;;;161.03;93.30;;;-2.50;93.70;;;;;;4809365;28;20624;-76
2021/03/16 03:42:46;;;;;;;161.43;93.50;;;-2.50;94.10;;;;;;4800611;28;20699;-85
2021/03/16 03:45:29;;;;;;;168.40;97.27;;;-2.40;94.80;;;;;;4868706;28;20745;-88
2021/03/16 03:48:13;;;;;;;168.27;97.97;;;-2.40;95.90;;;;;;4801106;28;20927;-89
2021/03/16 03:50:57;;;;;;;162.53;97.73;;;-2.30;97.10;;;;;;4806066;28;20586;-88
2021/03/16 03:53:40;;;;;;;169.67;94.40;;;-2.30;98.20;;;;;;4807756;28;20621;-88
2021/03/16 03:56:21;;;;;;;158.67;94.57;;;-2.10;99.00;;;;;;4818685;28;20643;-87
2021/03/16 03:59:05;;;;;;;162.37;93.40;;;-2.10;99.00;;;;;;4818181;28;20671;-78
2021/03/16 04:01:47;;;;;;;158.10;92.00;;;-2.10;99.20;;;;;;4814355;28;20652;-87
2021/03/16 04:04:29;;;;;;;166.20;96.60;;;-2.10;98.70;;;;;;4901911;28;20650;-88
2021/03/16 04:07:12;;;;;;;169.93;94.90;;;-2.00;98.90;;;;;;4812965;28;20642;-87
2021/03/16 04:09:52;;;;;;;159.23;91.60;;;-1.90;98.90;;;;;;4921309;28;20670;-88
2021/03/16 04:12:35;;;;;;;166.73;97.37;;;-1.90;98.70;;;;;;4800474;28;21051;-83
2021/03/16 04:15:16;;;;;;;199.10;109.53;;;-1.80;98.20;;;;;;4809547;28;20642;-89
2021/03/16 04:17:57;;;;;;;174.87;99.87;;;-1.80;97.70;;;;;;4818729;28;20627;-88
2021/03/16 04:20:38;;;;;;;174.30;100.20;;;-1.70;97.20;;;;;;4817261;28;20663;-85
2021/03/16 04:23:20;;;;;;;166.40;99.40;;;-1.70;96.60;;;;;;4818494;28;20693;-84
2021/03/16 04:26:00;;;;;;;182.20;101.10;;;-1.60;95.40;;;;;;4904494;28;20636;-87
2021/03/16 04:28:41;;;;;;;197.47;103.80;;;-1.60;93.90;;;;;;4804450;28;20654;-85
2021/03/16 04:31:22;;;;;;;200.57;100.40;;;-1.40;91.60;;;;;;4811997;28;20646;-86
2021/03/16 04:34:03;;;;;;;183.70;98.37;;;-1.50;88.90;;;;;;4809501;28;20698;-78
2021/03/16 04:36:44;;;;;;;183.30;99.47;;;-1.40;80.00;;;;;;4817822;28;20628;-88
2021/03/16 04:39:25;;;;;;;171.07;94.37;;;-1.40;74.50;;;;;;4818383;28;20639;-87
2021/03/16 04:42:06;;;;;;;170.37;94.30;;;-1.30;71.10;;;;;;4816557;28;21134;-80
2021/03/16 04:44:47;;;;;;;162.90;93.03;;;-1.30;67.60;;;;;;4816127;28;20674;-81
2021/03/16 04:47:31;;;;;;;153.43;91.47;;;-1.20;63.70;;;;;;4823178;28;20636;-85
2021/03/16 04:50:12;;;;;;;168.60;97.77;;;-1.20;59.00;;;;;;4811539;28;20651;-85
2021/03/16 04:52:53;;;;;;;167.40;101.60;;;-1.20;55.30;;;;;;4810510;28;21567;-86
2021/03/16 04:55:34;;;;;;;165.43;102.33;;;-1.10;51.20;;;;;;4903944;28;20627;-80
2021/03/16 04:58:15;;;;;;;166.93;99.50;;;-1.00;46.40;;;;;;4894971;28;20633;-88
2021/03/16 05:00:56;;;;;;;166.13;101.40;;;-1.00;41.40;;;;;;4800885;28;20625;-85
2021/03/16 05:03:36;;;;;;;182.07;104.17;;;-1.00;34.20;;;;;;4807707;28;20646;-86
2021/03/16 05:06:17;;;;;;;163.07;100.67;;;-0.90;24.40;;;;;;4810208;28;20663;-86
2021/03/16 05:08:58;;;;;;;168.30;100.80;;;-0.90;18.50;;;;;;4799885;28;20628;-86
2021/03/16 05:11:39;;;;;;;171.00;98.40;;;-0.90;14.80;;;;;;4811232;28;20623;-87
2021/03/16 05:14:20;;;;;;;166.20;98.70;;;-0.80;11.10;;;;;;4903904;28;21312;-87
2021/03/16 05:17:01;;;;;;;167.67;101.13;;;-0.80;6.10;;;;;;4817283;28;20702;-87
2021/03/16 05:19:42;;;;;;;167.67;100.30;;;-0.80;1.00;;;;;;4904897;28;20631;-86
2021/03/16 05:22:22;;;;;;;165.17;100.77;;;-0.80;1.00;;;;;;4817454;28;20584;-82
2021/03/16 05:25:05;;;;;;;174.57;100.00;;;-0.80;1.00;;;;;;4817617;28;20646;-79
2021/03/16 05:27:47;;;;;;;173.30;101.67;;;-0.80;1.00;;;;;;4910382;28;20628;-87
2021/03/16 05:30:27;;;;;;;154.17;93.53;;;-0.70;1.00;;;;;;4816804;28;20638;-86
2021/03/16 05:33:08;;;;;;;170.30;100.10;;;-0.70;1.00;;;;;;4800957;28;20701;-87
2021/03/16 05:35:49;;;;;;;191.33;110.23;;;-0.70;1.00;;;;;;4890772;28;21268;-85
2021/03/16 05:38:29;;;;;;;177.17;101.67;;;-0.70;1.00;;;;;;4902872;28;20673;-87
2021/03/16 05:41:11;;;;;;;156.53;93.60;;;-0.80;1.00;;;;;;4893271;28;20972;-85
2021/03/16 05:43:53;;;;;;;148.73;88.80;;;-0.90;1.00;;;;;;4809334;28;21041;-85
2021/03/16 05:46:36;;;;;;;147.73;89.63;;;-0.90;1.00;;;;;;4802526;28;21262;-86
2021/03/16 05:49:18;;;;;;;151.13;90.53;;;-1.00;1.00;;;;;;4787083;28;21062;-85
2021/03/16 05:51:59;;;;;;;152.37;93.30;;;-1.00;1.00;;;;;;4806624;28;20656;-82
2021/03/16 05:54:39;;;;;;;136.77;88.17;;;-0.90;1.00;;;;;;4807137;28;20626;-87
2021/03/16 05:57:20;;;;;;;136.37;88.50;;;-0.80;1.00;;;;;;4903752;28;20709;-85
2021/03/16 06:00:01;;;;;;;144.50;88.77;;;-0.60;1.00;;;;;;4910200;28;20661;-85
2021/03/16 06:02:42;;;;;;;136.60;87.00;;;-0.50;1.00;;;;;;4812162;28;20621;-86
2021/03/16 06:05:22;;;;;;;127.07;77.83;;;-0.30;1.00;;;;;;4814646;28;20713;-83
2021/03/16 06:08:03;;;;;;;119.63;76.77;;;-0.20;1.00;;;;;;4909186;28;20665;-74
2021/03/16 06:10:45;;;;;;;119.80;75.93;;;0.00;1.00;;;;;;4799365;28;20648;-86
2021/03/16 06:13:26;;;;;;;119.67;74.27;;;0.20;1.00;;;;;;4830593;28;20664;-86
2021/03/16 06:16:13;;;;;;;115.53;73.77;;;0.40;1.00;;;;;;4805859;28;20183;-83
2021/03/16 06:18:54;;;;;;;114.67;71.70;;;0.50;1.00;;;;;;4807306;28;20225;-86
2021/03/16 06:21:34;;;;;;;112.47;71.27;;;0.60;1.00;;;;;;4904011;28;20228;-85
2021/03/16 06:24:15;;;;;;;114.70;69.33;;;0.80;1.00;;;;;;4806746;28;20230;-86
2021/03/16 06:26:56;;;;;;;107.03;66.77;;;0.90;1.00;;;;;;4902958;28;20632;-86
2021/03/16 06:29:40;;;;;;;105.80;67.60;;;1.10;1.00;;;;;;4807381;28;20184;-86
2021/03/16 06:32:23;;;;;;;105.57;63.67;;;1.30;1.00;;;;;;4798055;28;20181;-86
2021/03/16 06:35:04;;;;;;;101.80;64.23;;;1.50;1.00;;;;;;4901711;28;20183;-85
2021/03/16 06:38:00;;;;;;;104.47;63.87;;;1.60;1.00;;;;;;4797862;28;20188;-85
2021/03/16 06:40:40;;;;;;;98.10;60.20;;;1.80;1.00;;;;;;4816483;28;20191;-85
2021/03/16 06:43:24;;;;;;;93.00;57.73;;;2.00;1.00;;;;;;4816538;28;20546;-87
2021/03/16 06:46:05;;;;;;;94.27;55.97;;;2.20;1.00;;;;;;4919088;28;20175;-86
2021/03/16 06:48:46;;;;;;;89.37;56.33;;;2.30;1.00;;;;;;4893031;28;20257;-86
2021/03/16 06:51:29;;;;;;;90.10;53.00;;;2.60;1.00;;;;;;4812946;28;20241;-86
2021/03/16 06:54:11;;;;;;;89.77;54.77;;;2.90;99.90;;;;;;4919818;28;20252;-86
2021/03/16 06:56:52;;;;;;;79.67;53.00;;;3.20;90.00;;;;;;4806462;28;20205;-85
2021/03/16 06:59:33;;;;;;;83.87;51.90;;;3.60;1.00;;;;;;4800646;28;20727;-81
2021/03/16 07:02:15;;;;;;;82.03;49.33;;;3.80;99.90;;;;;;4801811;28;20203;-85
2021/03/16 07:05:01;;;;;;;73.63;46.83;;;4.10;99.90;;;;;;4819095;28;20226;-82
2021/03/16 07:07:44;;;;;;;75.10;48.33;;;4.40;99.90;;;;;;4818039;28;20183;-83
2021/03/16 07:10:25;;;;;;;64.77;41.40;;;4.70;1.00;;;;;;4817723;28;20190;-89
2021/03/16 07:13:08;;;;;;;62.47;41.17;;;5.00;5.60;;;;;;4809895;28;20231;-83
2021/03/16 07:16:00;;;;;;;55.07;37.07;;;5.30;99.90;;;;;;4818423;28;20186;-84
2021/03/16 07:18:42;;;;;;;52.53;36.23;;;5.40;1.00;;;;;;4906082;28;20582;-81
2021/03/16 07:21:27;;;;;;;52.57;35.80;;;5.80;99.90;;;;;;4906168;28;20741;-85
2021/03/16 07:24:11;;;;;;;50.23;35.47;;;6.10;1.00;;;;;;4803235;28;20184;-85
2021/03/16 07:26:56;;;;;;;46.43;32.63;;;6.20;1.00;;;;;;4802111;28;20191;-83
2021/03/16 07:29:38;;;;;;;46.97;33.77;;;6.30;1.00;;;;;;4800266;28;20225;-83
2021/03/16 07:32:21;;;;;;;49.03;33.33;;;6.40;1.00;;;;;;4807832;28;20237;-77
2021/03/16 07:35:10;;;;;;;46.47;33.07;;;6.50;99.90;;;;;;4801018;28;20290;-76
2021/03/16 07:51:13;;;;;;;2.37;2.20;;;6.70;99.90;;;;;;4853912;27;920383;-82
2021/03/16 07:53:54;;;;;;;21.13;17.90;;;6.80;99.90;;;;;;4898458;28;20188;-84
2021/03/16 07:56:37;;;;;;;23.33;20.83;;;6.90;99.90;;;;;;4910838;28;20239;-76
2021/03/16 07:59:30;;;;;;;24.43;20.93;;;7.00;99.90;;;;;;4910500;28;20233;-82
2021/03/16 08:02:10;;;;;;;29.27;23.00;;;7.10;99.90;;;;;;4888638;28;20254;-81
2021/03/16 08:04:51;;;;;;;31.30;23.63;;;7.00;99.90;;;;;;4892429;28;20192;-84
2021/03/16 08:07:33;;;;;;;28.63;23.30;;;7.00;99.90;;;;;;4893645;28;20581;-80
2021/03/16 08:10:24;;;;;;;26.93;20.87;;;6.90;99.90;;;;;;4876303;28;20204;-81
2021/03/16 08:13:06;;;;;;;29.20;21.77;;;6.80;99.90;;;;;;4902462;28;20189;-77
2021/03/16 08:15:48;;;;;;;26.80;21.50;;;6.70;99.90;;;;;;4902643;28;20180;-83
2021/03/16 08:18:30;;;;;;;28.63;21.63;;;6.70;99.90;;;;;;4894997;28;20192;-79
2021/03/16 08:21:12;;;;;;;26.20;21.10;;;6.70;99.90;;;;;;4892177;28;20803;-83
2021/03/16 08:24:03;;;;;;;25.97;20.77;;;6.80;99.90;;;;;;4911236;28;20176;-82
2021/03/16 08:26:46;;;;;;;28.20;22.23;;;6.90;99.90;;;;;;4909889;28;20645;-80
2021/03/16 08:29:29;;;;;;;30.00;23.53;;;7.00;99.90;;;;;;4896326;28;20207;-83
2021/03/16 08:32:14;;;;;;;28.33;21.93;;;7.00;1.00;;;;;;4910591;28;20176;-83
2021/03/16 08:34:57;;;;;;;27.83;22.17;;;7.00;1.00;;;;;;4882466;28;20226;-83
2021/03/16 08:37:39;;;;;;;29.23;22.97;;;7.00;1.00;;;;;;4886751;28;20197;-82
2021/03/16 08:40:24;;;;;;;27.73;22.63;;;7.00;1.00;;;;;;4905925;28;20258;-81
2021/03/16 08:43:10;;;;;;;30.27;23.40;;;7.00;1.00;;;;;;4883765;28;20706;-84
2021/03/16 08:45:51;;;;;;;30.37;23.87;;;7.10;1.00;;;;;;4887829;28;20523;-84
2021/03/16 08:48:33;;;;;;;33.17;25.97;;;7.10;1.00;;;;;;4890628;28;20226;-88
2021/03/16 08:51:13;;;;;;;30.23;23.83;;;7.00;1.00;;;;;;4888461;28;20274;-84
2021/03/16 08:53:55;;;;;;;29.73;24.60;;;7.00;1.00;;;;;;4891007;28;20707;-83
2021/03/16 08:56:36;;;;;;;33.00;24.47;;;6.90;1.00;;;;;;4882547;28;20203;-75
2021/03/16 08:59:19;;;;;;;30.67;24.03;;;6.80;1.00;;;;;;4865060;28;20641;-82
2021/03/16 09:02:00;;;;;;;31.93;25.37;;;6.70;1.00;;;;;;4868096;28;20232;-84
2021/03/16 09:04:40;;;;;;;28.37;21.90;;;6.70;1.00;;;;;;4879670;28;20259;-86
2021/03/16 09:07:22;;;;;;;28.67;22.00;;;6.60;1.00;;;;;;4859621;28;20201;-83
2021/03/16 09:10:04;;;;;;;28.57;21.87;;;6.40;1.00;;;;;;4865491;28;20582;-84
2021/03/16 09:12:48;;;;;;;30.17;22.43;;;6.50;1.00;;;;;;4859884;28;20200;-83
2021/03/16 09:15:30;;;;;;;34.10;22.17;;;6.40;1.00;;;;;;4877372;28;20810;-81
2021/03/16 09:18:12;;;;;;;25.83;19.87;;;6.30;1.00;;;;;;4860450;28;20272;-84
2021/03/16 09:20:53;;;;;;;24.20;19.60;;;6.40;34.10;;;;;;4864803;28;20517;-82
2021/03/16 09:23:34;;;;;;;20.90;17.93;;;6.40;99.90;;;;;;4873612;28;20578;-84
2021/03/16 09:26:24;;;;;;;23.47;18.60;;;6.50;44.10;;;;;;4893188;28;20259;-84
2021/03/16 09:29:06;;;;;;;21.50;17.90;;;6.60;1.00;;;;;;4892746;28;20201;-84
2021/03/16 09:31:47;;;;;;;20.53;16.63;;;6.60;1.00;;;;;;4887430;28;20181;-81
2021/03/16 09:34:29;;;;;;;19.60;16.43;;;6.60;1.00;;;;;;4865262;28;20178;-80
2021/03/16 09:37:11;;;;;;;18.67;16.07;;;6.60;1.00;;;;;;4895740;28;20687;-82
2021/03/16 09:39:56;;;;;;;19.20;15.87;;;6.60;1.70;;;;;;4891320;28;20189;-80
2021/03/16 09:42:34;;;;;;;15.53;13.77;;;6.70;37.20;;;;;;4848074;28;20226;-81
2021/03/16 09:44:58;;;;;;;15.30;13.30;;;6.90;99.90;;;;;;4849705;28;20248;-80
2021/03/16 09:47:26;;;;;;;14.27;11.77;;;7.10;99.90;;;;;;4876751;28;20197;-80
2021/03/16 09:49:48;;;;;;;12.63;11.30;;;7.40;24.50;;;;;;4882531;28;20231;-80
2021/03/16 09:52:12;;;;;;;11.53;10.17;;;7.70;1.00;;;;;;4883898;28;20589;-84
2021/03/16 09:54:41;;;;;;;7.10;6.40;;;7.90;1.00;;;;;;4876728;28;20181;-81
2021/03/16 09:57:06;;;;;;;8.00;6.43;;;8.10;1.00;;;;;;4861392;28;20197;-81
2021/03/16 09:59:34;;;;;;;5.47;4.97;;;8.20;1.00;;;;;;4854211;28;20183;-84
2021/03/16 10:02:02;;;;;;;4.80;4.40;;;8.40;1.00;;;;;;4882709;28;20224;-84
2021/03/16 10:04:24;;;;;;;4.07;3.77;;;8.60;1.00;;;;;;4878357;28;20205;-87
2021/03/16 10:06:46;;;;;;;3.87;3.57;;;8.90;1.00;;;;;;4843630;28;20297;-88
2021/03/16 10:09:16;;;;;;;2.93;2.73;;;9.20;1.00;;;;;;4879492;28;20221;-86
2021/03/16 10:11:38;;;;;;;2.77;2.57;;;9.40;1.00;;;;;;4863426;28;20773;-81
2021/03/16 10:14:00;;;;;;;2.57;2.37;;;9.50;1.00;;;;;;4869928;28;20244;-86
2021/03/16 10:16:22;;;;;;;3.00;2.80;;;9.50;1.00;;;;;;4873391;28;20232;-85
2021/03/16 10:18:47;;;;;;;3.70;3.40;;;9.50;1.00;;;;;;4879315;28;20250;-87
2021/03/16 10:21:09;;;;;;;3.80;3.50;;;9.40;1.00;;;;;;4879781;28;20590;-86
2021/03/16 10:23:32;;;;;;;3.70;3.40;;;9.30;1.00;;;;;;4879381;28;20670;-89
2021/03/16 10:25:55;;;;;;;3.67;3.47;;;9.20;1.00;;;;;;4868443;28;20251;-81
2021/03/16 10:28:17;;;;;;;4.40;4.10;;;9.00;1.00;;;;;;4878650;28;20197;-87
2021/03/16 10:30:40;;;;;;;4.53;4.17;;;8.80;1.00;;;;;;4879878;28;20236;-86
2021/03/16 10:33:03;;;;;;;4.30;4.00;;;8.70;1.00;;;;;;4846792;28;20221;-86
2021/03/16 10:35:26;;;;;;;5.30;4.80;;;8.60;1.00;;;;;;4843310;28;20233;-86
2021/03/16 10:37:48;;;;;;;4.67;4.27;;;8.40;1.00;;;;;;4891040;28;20193;-84
2021/03/16 10:40:12;;;;;;;5.57;5.07;;;8.30;1.00;;;;;;4889560;28;20237;-87
2021/03/16 10:42:34;;;;;;;5.77;5.20;;;8.20;1.00;;;;;;4893820;28;20188;-86
2021/03/16 10:44:56;;;;;;;6.43;5.83;;;8.10;1.00;;;;;;4884183;28;20425;-87
2021/03/16 10:47:18;;;;;;;6.43;5.83;;;8.00;1.00;;;;;;4875854;28;20185;-79
2021/03/16 10:49:40;;;;;;;7.60;6.90;;;7.90;1.00;;;;;;4897155;28;20618;-86
2021/03/16 10:52:04;;;;;;;8.63;7.83;;;7.90;1.00;;;;;;4879742;28;20235;-83
2021/03/16 10:54:26;;;;;;;7.27;6.57;;;7.80;1.00;;;;;;4862720;28;20332;-88
2021/03/16 10:56:50;;;;;;;6.63;6.03;;;7.70;1.00;;;;;;4858917;28;20255;-85
2021/03/16 10:59:13;;;;;;;6.90;6.20;;;7.50;1.00;;;;;;4858521;28;20202;-84
2021/03/16 11:01:35;;;;;;;8.50;7.73;;;7.60;1.00;;;;;;4860445;28;20236;-85
2021/03/16 11:03:58;;;;;;;7.20;6.50;;;7.50;1.00;;;;;;4896027;28;20181;-86
2021/03/16 11:06:20;;;;;;;8.13;7.33;;;7.50;1.00;;;;;;4896351;28;20193;-87
2021/03/16 11:08:44;;;;;;;7.87;7.07;;;7.40;1.00;;;;;;4861595;28;20202;-82
2021/03/16 11:11:10;;;;;;;7.13;6.53;;;7.40;1.00;;;;;;4862765;28;20213;-79
2021/03/16 11:13:32;;;;;;;8.50;7.63;;;7.40;1.00;;;;;;4896876;28;20181;-83
2021/03/16 11:15:54;;;;;;;8.20;7.40;;;7.30;1.00;;;;;;4861855;28;20279;-83
2021/03/16 11:18:18;;;;;;;8.27;7.47;;;7.30;1.00;;;;;;4861762;28;20198;-86
2021/03/16 11:20:40;;;;;;;8.30;7.50;;;7.30;1.00;;;;;;4878297;28;20197;-85
2021/03/16 11:23:02;;;;;;;8.90;8.13;;;7.30;1.00;;;;;;4844575;28;20561;-83
2021/03/16 11:25:25;;;;;;;8.23;7.43;;;7.50;1.00;;;;;;4860642;28;20347;-83
2021/03/16 11:27:47;;;;;;;9.23;8.40;;;7.70;1.00;;;;;;4877654;28;20633;-75
2021/03/16 11:30:11;;;;;;;8.97;8.03;;;8.00;1.00;;;;;;4895141;28;20216;-84
2021/03/16 11:32:33;;;;;;;8.13;7.40;;;8.30;1.00;;;;;;4877868;28;20201;-80
2021/03/16 11:35:13;;;;;;;7.30;6.27;;;8.50;1.00;;;;;;4876950;28;20227;-84
2021/03/16 11:37:54;;;;;;;7.53;6.90;;;8.60;1.00;;;;;;4896441;28;20255;-86
2021/03/16 11:40:36;;;;;;;7.13;6.47;;;8.80;1.00;;;;;;4894568;28;20254;-81
2021/03/16 11:43:18;;;;;;;7.33;6.63;;;8.90;1.00;;;;;;4878179;28;20187;-83
2021/03/16 11:45:58;;;;;;;6.97;6.37;;;8.90;1.00;;;;;;4876763;28;20235;-82
2021/03/16 11:48:38;;;;;;;6.83;6.23;;;8.80;1.00;;;;;;4862131;28;20197;-84
2021/03/16 11:51:19;;;;;;;6.77;6.17;;;8.70;1.00;;;;;;4876178;28;20301;-85
2021/03/16 11:54:00;;;;;;;6.60;6.00;;;8.60;1.00;;;;;;4858701;28;20243;-85
2021/03/16 11:56:41;;;;;;;6.93;6.30;;;8.40;1.00;;;;;;4830859;28;20224;-85
2021/03/16 11:59:22;;;;;;;5.73;5.23;;;8.30;1.00;;;;;;4892890;28;20234;-86
2021/03/16 12:02:02;;;;;;;6.13;5.57;;;8.10;1.00;;;;;;4883510;28;20354;-77
2021/03/16 12:04:43;;;;;;;5.77;5.27;;;8.00;1.00;;;;;;4859380;28;20563;-88
2021/03/16 12:07:24;;;;;;;5.37;4.90;;;7.70;1.00;;;;;;4859234;28;20605;-84
2021/03/16 12:10:06;;;;;;;6.77;6.07;;;7.50;1.00;;;;;;4858706;28;20621;-85
2021/03/16 12:12:48;;;;;;;8.47;7.67;;;7.40;1.00;;;;;;4861957;28;20228;-81
2021/03/16 12:15:28;;;;;;;7.90;7.17;;;7.20;1.00;;;;;;4875958;28;20243;-81
2021/03/16 12:18:10;;;;;;;6.77;6.17;;;7.10;1.00;;;;;;4862552;28;20235;-88
2021/03/16 12:20:51;;;;;;;7.27;6.60;;;7.00;1.00;;;;;;4862442;28;20803;-88
2021/03/16 12:23:31;;;;;;;6.50;5.97;;;6.90;1.00;;;;;;4877444;28;20204;-83
2021/03/16 12:26:11;;;;;;;6.73;6.13;;;6.90;1.00;;;;;;4877727;28;20231;-87
2021/03/16 12:28:53;;;;;;;8.27;7.53;;;7.00;3.40;;;;;;4866591;28;20218;-83
2021/03/16 12:31:33;;;;;;;8.63;7.80;;;7.20;19.00;;;;;;4880061;28;20621;-83
2021/03/16 12:34:14;;;;;;;7.87;7.10;;;7.50;1.00;;;;;;4880310;28;20204;-88
2021/03/16 12:36:54;;;;;;;5.87;5.37;;;8.40;78.30;;;;;;4848398;28;20244;-87
2021/03/16 12:39:35;;;;;;;4.30;3.90;;;10.80;99.90;;;;;;4879905;28;20242;-84
2021/03/16 12:42:16;;;;;;;2.43;2.23;;;13.50;1.00;;;;;;4864414;28;20593;-84
2021/03/16 12:44:58;;;;;;;1.77;1.67;;;15.20;1.00;;;;;;4887945;28;20254;-85
2021/03/16 12:47:38;;;;;;;1.10;1.10;;;16.20;99.90;;;;;;4865469;28;20197;-86
2021/03/16 12:50:19;;;;;;;0.77;0.77;;;16.70;99.90;;;;;;4899071;28;20228;-86
2021/03/16 12:52:59;;;;;;;0.70;0.70;;;16.80;99.90;;;;;;4899986;28;20220;-87
2021/03/16 12:55:42;;;;;;;0.60;0.50;;;17.10;99.90;;;;;;4899705;28;20169;-86
2021/03/16 12:58:22;;;;;;;0.43;0.43;;;17.30;99.90;;;;;;4898659;28;20223;-79
2021/03/16 13:01:04;;;;;;;0.30;0.30;;;17.50;99.90;;;;;;4894256;28;20582;-79
2021/03/16 13:03:45;;;;;;;0.37;0.37;;;17.70;99.90;;;;;;4878666;28;20185;-87
2021/03/16 13:06:26;;;;;;;0.30;0.30;;;17.60;99.90;;;;;;4878711;28;20228;-87
2021/03/16 13:09:07;;;;;;;0.33;0.33;;;17.20;99.90;;;;;;4847936;28;20224;-85
2021/03/16 13:11:47;;;;;;;0.53;0.53;;;16.50;99.90;;;;;;4862174;28;20260;-82
2021/03/16 13:14:27;;;;;;;0.43;0.43;;;15.80;99.90;;;;;;4864611;28;20185;-87
2021/03/16 13:17:09;;;;;;;0.47;0.47;;;15.00;99.90;;;;;;4879460;28;20176;-89
2021/03/16 13:19:50;;;;;;;0.53;0.53;;;14.40;99.90;;;;;;4879437;28;20223;-86
2021/03/16 13:22:30;;;;;;;0.63;0.63;;;13.80;99.90;;;;;;4861509;28;20241;-86
2021/03/16 13:25:11;;;;;;;0.53;0.53;;;13.50;99.90;;;;;;4846330;28;20263;-84
2021/03/16 13:27:51;;;;;;;0.60;0.60;;;13.40;99.90;;;;;;4879689;28;20231;-86
2021/03/16 13:30:32;;;;;;;0.70;0.70;;;13.60;99.90;;;;;;4878352;28;20252;-85
2021/03/16 13:33:14;;;;;;;0.97;0.97;;;13.70;99.90;;;;;;4861198;28;20197;-84
2021/03/16 13:35:55;;;;;;;1.07;1.07;;;13.50;99.90;;;;;;4878084;28;20233;-85
2021/03/16 13:38:35;;;;;;;0.97;0.97;;;13.20;99.90;;;;;;4878946;28;20235;-85